Time;durP1;ratioP1;P1;durP2;ratioP2;P2;SDS_P1;SDS_P2;PMS_P1;PMS_P2;Temp;Humidity;BMP_temperature;BMP_pressure;BME280_temperature;BME280_humidity;BME280_pressure;Samples;Min_cycle;Max_cycle;Signal;HPM_P1;HPM_P2
2024/01/30 00:01:38;;;;;;;2.40;1.23;;;4.60;92.10;;;;;;5051317;28;20277;-65
2024/01/30 00:04:04;;;;;;;3.97;1.50;;;4.60;92.20;;;;;;5051219;28;20241;-65
2024/01/30 00:06:30;;;;;;;3.50;1.40;;;4.60;92.10;;;;;;5051427;28;20213;-65
2024/01/30 00:08:55;;;;;;;1.13;1.00;;;4.60;92.20;;;;;;5051526;28;20171;-65
2024/01/30 00:11:21;;;;;;;1.33;1.23;;;4.60;92.30;;;;;;5051175;28;20695;-65
2024/01/30 00:13:47;;;;;;;0.80;0.80;;;4.60;92.30;;;;;;5051236;28;20197;-65
2024/01/30 00:16:23;;;;;;;3.00;1.30;;;4.60;92.30;;;;;;5051386;28;20166;-65
2024/01/30 00:18:53;;;;;;;1.60;1.50;;;4.60;92.20;;;;;;5051301;28;20539;-65
2024/01/30 00:21:19;;;;;;;2.13;1.05;;;4.60;92.20;;;;;;5051196;28;20582;-65
2024/01/30 00:23:45;;;;;;;0.93;0.73;;;4.70;92.20;;;;;;5051195;28;20255;-66
2024/01/30 00:26:11;;;;;;;1.00;1.00;;;4.70;92.10;;;;;;5051253;28;20607;-65
2024/01/30 00:28:40;;;;;;;1.58;1.00;;;4.70;92.00;;;;;;5051122;28;20232;-65
2024/01/30 00:31:06;;;;;;;2.00;1.10;;;4.70;92.00;;;;;;5050930;28;20194;-64
2024/01/30 00:33:31;;;;;;;2.80;1.10;;;4.60;92.10;;;;;;5051018;28;20580;-64
2024/01/30 00:35:57;;;;;;;1.00;1.00;;;4.60;92.10;;;;;;5051705;28;20174;-65
2024/01/30 00:38:23;;;;;;;1.30;1.10;;;4.60;92.00;;;;;;5052576;28;20178;-65
2024/01/30 00:40:49;;;;;;;1.17;1.07;;;4.60;92.20;;;;;;5050850;28;20249;-65
2024/01/30 00:43:15;;;;;;;0.80;0.80;;;4.50;92.30;;;;;;5050982;28;20401;-64
2024/01/30 00:45:41;;;;;;;4.75;1.35;;;4.50;92.40;;;;;;5054207;28;20419;-65
2024/01/30 00:48:07;;;;;;;1.37;1.00;;;4.50;92.40;;;;;;5054901;28;20205;-65
2024/01/30 00:50:32;;;;;;;3.57;1.17;;;4.50;92.30;;;;;;5055021;28;20470;-65
2024/01/30 00:52:58;;;;;;;1.33;1.03;;;4.60;92.20;;;;;;5054591;28;20188;-65
2024/01/30 00:55:24;;;;;;;1.10;1.00;;;4.60;92.20;;;;;;5054810;28;20185;-65
2024/01/30 00:57:49;;;;;;;1.80;1.30;;;4.60;92.20;;;;;;5054813;28;20647;-65
2024/01/30 01:00:18;;;;;;;1.10;1.00;;;4.60;92.00;;;;;;5054582;28;20201;-65
2024/01/30 01:02:44;;;;;;;1.05;0.95;;;4.70;91.90;;;;;;5054408;28;20190;-65
2024/01/30 01:05:10;;;;;;;0.90;0.88;;;4.70;91.80;;;;;;5054618;28;20190;-64
2024/01/30 01:07:35;;;;;;;1.30;1.07;;;4.70;91.60;;;;;;5054590;28;20617;-64
2024/01/30 01:10:02;;;;;;;1.40;1.30;;;4.60;91.60;;;;;;5054449;28;20164;-65
2024/01/30 01:12:28;;;;;;;0.88;0.88;;;4.60;91.80;;;;;;5054085;28;20251;-65
2024/01/30 01:14:53;;;;;;;1.80;1.10;;;4.60;91.80;;;;;;5054390;28;20170;-65
2024/01/30 01:17:19;;;;;;;1.57;1.33;;;4.60;91.80;;;;;;5054548;28;20182;-65
2024/01/30 01:19:45;;;;;;;2.03;0.97;;;4.60;91.70;;;;;;5054365;28;20174;-65
2024/01/30 01:22:10;;;;;;;4.00;1.00;;;4.60;91.50;;;;;;5053842;28;20217;-64
2024/01/30 01:24:36;;;;;;;1.30;0.90;;;4.70;91.50;;;;;;5054618;28;20185;-65
2024/01/30 01:27:02;;;;;;;3.70;1.33;;;4.70;91.30;;;;;;5054212;28;20459;-65
2024/01/30 01:29:28;;;;;;;1.17;0.80;;;4.70;91.20;;;;;;5054092;28;20413;-65
2024/01/30 01:31:58;;;;;;;0.90;0.90;;;4.60;91.30;;;;;;5053960;28;20455;-64
2024/01/30 01:34:24;;;;;;;1.23;1.13;;;4.60;91.30;;;;;;5053964;28;20239;-65
2024/01/30 01:36:50;;;;;;;0.70;0.70;;;4.50;91.40;;;;;;5054019;28;20601;-65
2024/01/30 01:39:16;;;;;;;0.90;0.90;;;4.60;91.30;;;;;;5053882;28;20434;-65
2024/01/30 01:41:42;;;;;;;1.40;0.93;;;4.50;91.20;;;;;;5053764;28;20202;-65
2024/01/30 01:44:08;;;;;;;0.80;0.70;;;4.50;91.30;;;;;;5053700;28;21052;-65
2024/01/30 01:46:35;;;;;;;1.10;1.00;;;4.50;91.30;;;;;;5053760;28;20196;-65
2024/01/30 01:49:02;;;;;;;0.88;0.88;;;4.50;91.50;;;;;;5053918;28;20212;-65
2024/01/30 01:51:30;;;;;;;1.60;0.68;;;4.40;91.70;;;;;;5053617;28;20221;-65
2024/01/30 01:53:58;;;;;;;1.05;1.05;;;4.40;91.70;;;;;;5053482;28;20177;-65
2024/01/30 01:56:25;;;;;;;2.20;1.13;;;4.50;91.70;;;;;;5052480;28;20169;-65
2024/01/30 01:58:54;;;;;;;1.10;1.00;;;4.50;91.60;;;;;;5054863;28;20183;-65
2024/01/30 02:01:20;;;;;;;0.88;0.80;;;4.60;91.40;;;;;;5053330;28;20198;-64
2024/01/30 02:03:46;;;;;;;1.13;1.02;;;4.60;91.30;;;;;;5053460;28;20527;-64
2024/01/30 02:06:14;;;;;;;1.50;1.40;;;4.70;91.30;;;;;;5053519;28;20177;-65
2024/01/30 02:08:40;;;;;;;3.10;1.15;;;4.60;91.10;;;;;;5053369;28;20501;-65
2024/01/30 02:11:06;;;;;;;1.07;0.90;;;4.50;91.20;;;;;;5053200;28;20598;-64
2024/01/30 02:13:32;;;;;;;0.90;0.90;;;4.60;91.10;;;;;;5053235;28;20175;-65
2024/01/30 02:15:57;;;;;;;1.07;0.93;;;4.60;91.10;;;;;;5053278;28;20921;-65
2024/01/30 02:18:23;;;;;;;0.87;0.87;;;4.70;91.00;;;;;;5053281;28;20174;-65
2024/01/30 02:20:50;;;;;;;1.10;0.93;;;4.60;90.90;;;;;;5052862;28;20907;-65
2024/01/30 02:23:16;;;;;;;1.98;1.85;;;4.60;91.00;;;;;;5053058;28;20235;-65
2024/01/30 02:25:45;;;;;;;3.20;0.80;;;4.60;91.00;;;;;;5053021;28;20182;-65
2024/01/30 02:28:14;;;;;;;1.45;1.35;;;4.60;90.90;;;;;;5053245;28;20456;-65
2024/01/30 02:30:40;;;;;;;0.80;0.80;;;4.60;90.90;;;;;;5052818;28;20174;-64
2024/01/30 02:33:06;;;;;;;1.10;0.98;;;4.50;90.80;;;;;;5052795;28;20206;-64
2024/01/30 02:35:33;;;;;;;1.23;1.00;;;4.50;91.00;;;;;;5053075;28;20204;-65
2024/01/30 02:37:58;;;;;;;1.27;1.20;;;4.50;91.10;;;;;;5052861;28;20166;-65
2024/01/30 02:40:24;;;;;;;0.90;0.90;;;4.50;91.00;;;;;;5052714;28;20728;-65
2024/01/30 02:42:50;;;;;;;0.83;0.83;;;4.50;90.90;;;;;;5052483;28;20239;-65
2024/01/30 02:45:15;;;;;;;1.20;1.07;;;4.40;91.10;;;;;;5052765;28;20174;-65
2024/01/30 02:47:41;;;;;;;1.63;0.77;;;4.40;91.30;;;;;;5052790;28;20289;-64
2024/01/30 02:50:07;;;;;;;1.00;0.90;;;4.40;91.30;;;;;;5052240;28;20163;-65
2024/01/30 02:52:35;;;;;;;2.50;1.20;;;4.40;91.20;;;;;;5051427;28;20671;-65
2024/01/30 02:55:01;;;;;;;1.85;1.20;;;4.50;91.20;;;;;;5052302;28;20926;-65
2024/01/30 02:57:28;;;;;;;1.48;1.10;;;4.50;91.00;;;;;;5052399;28;20175;-64
2024/01/30 02:59:53;;;;;;;2.85;1.20;;;4.40;91.00;;;;;;5052280;28;20678;-64
2024/01/30 03:02:19;;;;;;;1.00;1.00;;;4.40;91.00;;;;;;5052243;28;20198;-65
2024/01/30 03:04:45;;;;;;;0.82;0.82;;;4.40;91.00;;;;;;5052459;28;20189;-65
2024/01/30 03:07:11;;;;;;;1.07;0.97;;;4.50;90.90;;;;;;5051909;28;20202;-65
2024/01/30 03:09:37;;;;;;;1.43;1.33;;;4.50;90.80;;;;;;5052156;28;20245;-65
2024/01/30 03:12:03;;;;;;;1.53;1.43;;;4.40;90.80;;;;;;5051973;28;20942;-65
2024/01/30 03:14:31;;;;;;;1.30;1.05;;;4.40;90.80;;;;;;5052205;28;20468;-64
2024/01/30 03:16:57;;;;;;;1.02;0.90;;;4.50;90.80;;;;;;5052160;28;20610;-65
2024/01/30 03:19:23;;;;;;;0.82;0.82;;;4.40;90.50;;;;;;5052444;28;20198;-65
2024/01/30 03:21:49;;;;;;;1.10;1.10;;;4.40;90.60;;;;;;5052580;28;20267;-65
2024/01/30 03:24:14;;;;;;;0.80;0.80;;;4.50;90.60;;;;;;5051807;28;20253;-65
2024/01/30 03:26:40;;;;;;;2.10;1.10;;;4.50;90.70;;;;;;5051900;28;20256;-65
2024/01/30 03:29:06;;;;;;;2.80;1.20;;;4.50;90.50;;;;;;5051949;28;20249;-65
2024/01/30 03:31:32;;;;;;;0.85;0.82;;;4.60;90.60;;;;;;5050357;28;20251;-65
2024/01/30 03:33:58;;;;;;;2.20;1.50;;;4.50;90.50;;;;;;5051599;28;20182;-65
2024/01/30 03:36:23;;;;;;;1.33;0.70;;;4.40;90.70;;;;;;5051760;28;20492;-65
2024/01/30 03:38:49;;;;;;;2.93;1.47;;;4.40;90.80;;;;;;5051542;28;20421;-65
2024/01/30 03:41:14;;;;;;;1.23;1.07;;;4.40;90.90;;;;;;5051525;28;20192;-64
2024/01/30 03:43:40;;;;;;;1.30;1.20;;;4.40;91.00;;;;;;5050218;28;20253;-64
2024/01/30 03:46:07;;;;;;;0.77;0.77;;;4.40;91.10;;;;;;5051620;28;20249;-65
2024/01/30 03:48:32;;;;;;;2.03;1.33;;;4.40;91.20;;;;;;5051462;28;20283;-65
2024/01/30 03:50:58;;;;;;;1.13;0.97;;;4.40;91.30;;;;;;5051263;28;20427;-64
2024/01/30 03:53:23;;;;;;;0.70;0.70;;;4.40;91.40;;;;;;5051441;28;20170;-65
2024/01/30 03:55:49;;;;;;;1.20;1.10;;;4.40;91.40;;;;;;5051474;28;20170;-65
2024/01/30 03:58:15;;;;;;;3.03;1.00;;;4.40;91.30;;;;;;5051494;28;20173;-65
2024/01/30 04:00:40;;;;;;;1.30;1.13;;;4.30;91.40;;;;;;5051383;28;20181;-64
2024/01/30 04:03:06;;;;;;;2.10;1.10;;;4.20;91.80;;;;;;5051834;28;20185;-64
2024/01/30 04:05:32;;;;;;;1.33;1.23;;;4.30;92.00;;;;;;5051354;28;20504;-65
2024/01/30 04:07:58;;;;;;;1.97;1.50;;;4.30;91.90;;;;;;5051350;28;20480;-65
2024/01/30 04:10:24;;;;;;;1.10;0.80;;;4.30;91.90;;;;;;5051189;28;20531;-65
2024/01/30 04:12:51;;;;;;;0.80;0.80;;;4.20;92.00;;;;;;5051203;28;20428;-64
2024/01/30 04:15:17;;;;;;;6.13;1.65;;;4.20;92.10;;;;;;5049998;28;20178;-65
2024/01/30 04:17:43;;;;;;;2.23;1.93;;;4.20;92.00;;;;;;5039091;28;20174;-65
2024/01/30 04:20:18;;;;;;;1.27;0.90;;;4.20;92.00;;;;;;5033670;28;20449;-65
2024/01/30 04:22:44;;;;;;;5.35;1.25;;;4.30;92.00;;;;;;5035200;28;20624;-65
2024/01/30 04:25:10;;;;;;;1.02;0.93;;;4.40;92.00;;;;;;5035595;28;20179;-65
2024/01/30 04:27:36;;;;;;;1.20;1.08;;;4.40;91.80;;;;;;5035322;28;20285;-66
2024/01/30 04:30:02;;;;;;;1.60;1.17;;;4.40;91.70;;;;;;5035703;28;20206;-65
2024/01/30 04:32:27;;;;;;;1.27;1.20;;;4.40;91.60;;;;;;5034678;28;20187;-62
2024/01/30 04:34:53;;;;;;;2.77;2.57;;;4.30;91.50;;;;;;5035216;28;20180;-65
2024/01/30 04:37:19;;;;;;;2.50;2.30;;;4.30;91.50;;;;;;5035319;28;20558;-65
2024/01/30 04:39:44;;;;;;;1.80;1.53;;;4.20;91.70;;;;;;5035351;28;20174;-65
2024/01/30 04:42:10;;;;;;;2.87;1.80;;;4.20;91.80;;;;;;5036088;28;20191;-65
2024/01/30 04:44:36;;;;;;;1.87;1.40;;;4.20;92.10;;;;;;5035160;28;20174;-64
2024/01/30 04:47:01;;;;;;;1.52;1.42;;;4.10;92.30;;;;;;5034860;28;20521;-63
2024/01/30 04:49:29;;;;;;;1.33;1.23;;;4.20;92.60;;;;;;5034905;28;20211;-66
2024/01/30 04:51:55;;;;;;;1.20;1.10;;;4.20;92.60;;;;;;5034844;28;20183;-64
2024/01/30 04:54:21;;;;;;;1.23;1.13;;;4.30;92.50;;;;;;5034872;28;20544;-66
2024/01/30 04:56:46;;;;;;;2.03;1.23;;;4.20;92.30;;;;;;5034984;28;20193;-65
2024/01/30 04:59:12;;;;;;;1.07;1.07;;;4.20;92.30;;;;;;5034819;28;20167;-63
2024/01/30 05:01:37;;;;;;;1.77;1.40;;;4.20;92.40;;;;;;5034637;28;20194;-64
2024/01/30 05:04:03;;;;;;;1.63;1.47;;;4.30;92.40;;;;;;5033282;28;20673;-65
2024/01/30 05:06:29;;;;;;;1.40;1.30;;;4.30;92.30;;;;;;5034715;28;20171;-64
2024/01/30 05:08:55;;;;;;;1.57;1.20;;;4.30;92.30;;;;;;5034637;28;20448;-65
2024/01/30 05:11:21;;;;;;;2.03;1.00;;;4.20;92.40;;;;;;5034432;28;20440;-65
2024/01/30 05:13:47;;;;;;;1.60;1.50;;;4.20;92.40;;;;;;5034536;28;20167;-66
2024/01/30 05:16:13;;;;;;;2.07;1.73;;;4.20;92.40;;;;;;5034553;28;20414;-66
2024/01/30 05:18:38;;;;;;;3.42;1.33;;;4.30;92.30;;;;;;5034401;28;20784;-65
2024/01/30 05:21:05;;;;;;;1.00;1.00;;;4.30;92.20;;;;;;5034109;28;20297;-66
2024/01/30 05:23:30;;;;;;;1.80;1.70;;;4.30;92.10;;;;;;5034303;28;20565;-63
2024/01/30 05:25:56;;;;;;;1.17;1.00;;;4.20;92.00;;;;;;5034429;28;20183;-65
2024/01/30 05:28:22;;;;;;;1.07;1.07;;;4.20;92.10;;;;;;5034201;28;20640;-66
2024/01/30 05:30:47;;;;;;;1.90;0.80;;;4.30;92.10;;;;;;5033925;28;20172;-67
2024/01/30 05:33:13;;;;;;;1.50;0.90;;;4.40;92.00;;;;;;5034015;28;20318;-65
2024/01/30 05:35:39;;;;;;;1.87;1.60;;;4.40;92.20;;;;;;5034308;28;20559;-66
2024/01/30 05:38:04;;;;;;;1.37;1.10;;;4.40;92.40;;;;;;5034255;28;20186;-65
2024/01/30 05:40:33;;;;;;;1.23;1.13;;;4.40;92.40;;;;;;5034185;28;20175;-65
2024/01/30 05:43:00;;;;;;;1.52;1.02;;;4.40;92.40;;;;;;5033719;28;20213;-65
2024/01/30 05:45:26;;;;;;;1.30;1.20;;;4.40;92.50;;;;;;5034033;28;20647;-63
2024/01/30 05:47:53;;;;;;;2.25;1.30;;;4.40;92.40;;;;;;5034041;28;20202;-64
2024/01/30 05:50:19;;;;;;;1.42;1.33;;;4.40;92.30;;;;;;5033911;28;20250;-64
2024/01/30 05:52:45;;;;;;;1.50;1.40;;;4.50;92.20;;;;;;5033655;28;20198;-65
2024/01/30 05:55:11;;;;;;;2.00;1.47;;;4.50;92.20;;;;;;5033793;28;20726;-65
2024/01/30 05:57:37;;;;;;;2.25;1.02;;;4.50;92.10;;;;;;5033871;28;20720;-65
2024/01/30 06:00:05;;;;;;;2.03;1.20;;;4.50;92.10;;;;;;5033644;28;20263;-65
2024/01/30 06:02:31;;;;;;;2.05;1.25;;;4.60;92.20;;;;;;5033869;28;20440;-65
2024/01/30 06:04:56;;;;;;;3.53;1.20;;;4.60;92.00;;;;;;5034734;28;20569;-65
2024/01/30 06:07:22;;;;;;;1.30;1.23;;;4.70;91.90;;;;;;5033512;28;20954;-65
2024/01/30 06:09:48;;;;;;;2.10;1.43;;;4.70;91.60;;;;;;5033644;28;20199;-65
2024/01/30 06:12:13;;;;;;;0.93;0.93;;;4.70;91.50;;;;;;5033181;28;20195;-65
2024/01/30 06:14:39;;;;;;;4.27;1.77;;;4.70;91.30;;;;;;5032990;28;20270;-65
2024/01/30 06:17:05;;;;;;;1.13;1.07;;;4.60;91.40;;;;;;5033470;28;20178;-65
2024/01/30 06:19:31;;;;;;;1.13;1.03;;;4.60;91.70;;;;;;5033434;28;20410;-65
2024/01/30 06:21:56;;;;;;;3.80;1.30;;;4.60;91.70;;;;;;5033031;28;20464;-64
2024/01/30 06:24:22;;;;;;;1.20;1.10;;;4.60;91.70;;;;;;5033193;28;20171;-66
2024/01/30 06:26:47;;;;;;;1.13;0.93;;;4.70;91.60;;;;;;5033183;28;20213;-64
2024/01/30 06:29:14;;;;;;;1.97;1.23;;;4.70;91.60;;;;;;5032517;28;20718;-65
2024/01/30 06:31:41;;;;;;;1.60;1.50;;;4.70;91.60;;;;;;5032065;28;20198;-64
2024/01/30 06:34:07;;;;;;;2.22;0.95;;;4.70;91.40;;;;;;5032648;28;20166;-65
2024/01/30 06:36:33;;;;;;;1.73;0.98;;;4.60;91.30;;;;;;5033052;28;20261;-64
2024/01/30 06:38:59;;;;;;;2.10;1.10;;;4.50;91.40;;;;;;5032780;28;20210;-63
2024/01/30 06:41:25;;;;;;;3.13;0.93;;;4.60;91.70;;;;;;5032168;28;20425;-63
2024/01/30 06:43:50;;;;;;;1.20;0.90;;;4.50;91.60;;;;;;5032076;28;20178;-64
2024/01/30 06:46:16;;;;;;;1.00;0.93;;;4.50;91.60;;;;;;5032850;28;20175;-64
2024/01/30 06:48:44;;;;;;;2.20;1.43;;;4.60;91.50;;;;;;5032889;28;20198;-64
2024/01/30 06:51:10;;;;;;;1.70;1.60;;;4.60;91.40;;;;;;5032261;28;20183;-64
2024/01/30 06:53:36;;;;;;;1.90;1.80;;;4.60;91.50;;;;;;5032227;28;20175;-64
2024/01/30 06:56:02;;;;;;;1.20;1.20;;;4.50;91.50;;;;;;5032798;28;20245;-64
2024/01/30 06:58:27;;;;;;;1.90;1.80;;;4.50;91.70;;;;;;5032516;28;20178;-64
2024/01/30 07:00:54;;;;;;;1.33;1.10;;;4.50;91.80;;;;;;5032008;28;20444;-64
2024/01/30 07:03:19;;;;;;;2.05;1.52;;;4.50;91.90;;;;;;5032243;28;20179;-64
2024/01/30 07:05:45;;;;;;;6.70;1.30;;;4.70;92.10;;;;;;5032400;28;20261;-64
2024/01/30 07:08:10;;;;;;;1.70;1.60;;;4.70;91.90;;;;;;5032445;28;20790;-64
2024/01/30 07:10:37;;;;;;;1.40;1.30;;;4.70;91.80;;;;;;5032314;28;20708;-64
2024/01/30 07:13:05;;;;;;;1.65;1.55;;;4.80;91.60;;;;;;5031979;28;20178;-66
2024/01/30 07:15:31;;;;;;;1.85;1.50;;;4.90;91.60;;;;;;5032229;28;20167;-64
2024/01/30 07:17:57;;;;;;;0.98;0.95;;;4.90;91.50;;;;;;5032318;28;20171;-64
2024/01/30 07:20:23;;;;;;;1.10;1.00;;;4.90;91.50;;;;;;5032141;28;20174;-65
2024/01/30 07:22:49;;;;;;;0.82;0.77;;;5.00;91.30;;;;;;5031728;28;20206;-65
2024/01/30 07:25:16;;;;;;;1.00;0.90;;;5.10;91.10;;;;;;5033431;28;20313;-65
2024/01/30 07:27:42;;;;;;;0.98;0.98;;;5.20;90.80;;;;;;5031865;28;20281;-64
2024/01/30 07:30:08;;;;;;;1.00;1.00;;;5.20;90.70;;;;;;5031722;28;20198;-64
2024/01/30 07:32:33;;;;;;;1.97;1.40;;;5.30;90.80;;;;;;5031604;28;20705;-64
2024/01/30 07:34:59;;;;;;;1.83;1.70;;;5.30;90.50;;;;;;5032006;28;20245;-65
2024/01/30 07:37:25;;;;;;;2.50;1.00;;;5.40;90.40;;;;;;5031923;28;20175;-65
2024/01/30 07:39:50;;;;;;;1.53;1.43;;;5.40;90.30;;;;;;5031927;28;20182;-65
2024/01/30 07:42:17;;;;;;;1.00;1.00;;;5.40;90.30;;;;;;5030890;28;20714;-63
2024/01/30 07:44:43;;;;;;;2.00;1.90;;;5.50;90.10;;;;;;5031587;28;20175;-64
2024/01/30 07:47:08;;;;;;;2.00;1.23;;;5.50;90.10;;;;;;5031785;28;20641;-65
2024/01/30 07:49:36;;;;;;;1.20;1.10;;;5.50;90.20;;;;;;5031722;28;20168;-63
2024/01/30 07:52:02;;;;;;;2.67;2.17;;;5.50;90.30;;;;;;5031353;28;20430;-65
2024/01/30 07:54:27;;;;;;;2.20;1.30;;;5.60;90.20;;;;;;5029564;28;20182;-65
2024/01/30 07:56:53;;;;;;;1.70;1.37;;;5.70;90.10;;;;;;5038042;28;20469;-64
2024/01/30 07:59:24;;;;;;;1.43;1.33;;;5.80;90.00;;;;;;5036640;28;20562;-64
2024/01/30 08:01:50;;;;;;;1.95;0.90;;;5.90;90.00;;;;;;5039720;28;20511;-65
2024/01/30 08:04:15;;;;;;;1.53;1.43;;;6.10;89.50;;;;;;5040071;28;20201;-66
2024/01/30 08:06:41;;;;;;;1.17;1.07;;;6.30;89.90;;;;;;5041151;28;20195;-64
2024/01/30 08:09:08;;;;;;;1.60;1.50;;;6.60;89.80;;;;;;5031592;28;20174;-64
2024/01/30 08:11:34;;;;;;;1.42;1.05;;;7.00;89.10;;;;;;5031322;28;20277;-64
2024/01/30 08:14:00;;;;;;;2.37;1.80;;;7.60;86.60;;;;;;5031599;28;20257;-65
2024/01/30 08:16:25;;;;;;;1.53;1.43;;;8.30;86.80;;;;;;5031570;28;20163;-64
2024/01/30 08:18:53;;;;;;;1.90;1.80;;;9.00;85.30;;;;;;5031799;28;20574;-65
2024/01/30 08:21:18;;;;;;;3.30;2.23;;;9.90;83.60;;;;;;5030791;28;20213;-63
2024/01/30 08:23:44;;;;;;;2.47;2.27;;;11.10;79.10;;;;;;5031260;28;20409;-63
2024/01/30 08:26:10;;;;;;;1.57;1.50;;;12.20;75.40;;;;;;5031113;28;20170;-63
2024/01/30 08:28:35;;;;;;;3.83;2.00;;;13.10;72.20;;;;;;5031314;28;20198;-63
2024/01/30 08:31:01;;;;;;;1.60;1.50;;;13.70;68.90;;;;;;5031195;28;20278;-63
2024/01/30 08:33:26;;;;;;;1.90;1.80;;;14.40;66.30;;;;;;5031138;28;20169;-63
2024/01/30 08:35:52;;;;;;;2.37;2.10;;;15.30;64.10;;;;;;5031247;28;20538;-63
2024/01/30 08:38:19;;;;;;;2.53;1.87;;;16.30;60.80;;;;;;5031152;28;20807;-63
2024/01/30 08:40:45;;;;;;;2.30;2.10;;;17.20;57.60;;;;;;5030931;28;20452;-63
2024/01/30 08:43:10;;;;;;;3.43;2.30;;;17.90;55.20;;;;;;5031082;28;20242;-63
2024/01/30 08:45:36;;;;;;;2.40;2.10;;;18.20;53.20;;;;;;5031179;28;20266;-63
2024/01/30 08:48:02;;;;;;;3.00;2.23;;;18.00;51.50;;;;;;5032381;28;20500;-64
2024/01/30 08:50:28;;;;;;;3.93;2.57;;;17.80;51.00;;;;;;5031189;28;20186;-64
2024/01/30 08:52:53;;;;;;;3.53;3.20;;;17.60;50.80;;;;;;5030934;28;20708;-64
2024/01/30 08:55:19;;;;;;;3.77;3.40;;;17.70;50.20;;;;;;5030815;28;20418;-64
2024/01/30 08:57:45;;;;;;;11.50;6.10;;;17.70;49.60;;;;;;5031016;28;20254;-64
2024/01/30 09:00:11;;;;;;;5.20;4.50;;;17.00;49.80;;;;;;5030853;28;20949;-64
2024/01/30 09:02:37;;;;;;;6.70;4.40;;;16.20;49.80;;;;;;5030556;28;20219;-64
2024/01/30 09:05:03;;;;;;;5.77;3.60;;;15.30;51.20;;;;;;5031393;28;20452;-64
2024/01/30 09:07:29;;;;;;;5.90;4.23;;;14.50;52.00;;;;;;5032814;28;20235;-64
2024/01/30 09:09:54;;;;;;;10.80;4.23;;;13.80;53.40;;;;;;5034202;28;20186;-64
2024/01/30 09:12:20;;;;;;;4.80;4.27;;;13.10;54.70;;;;;;5033319;28;20570;-64
2024/01/30 09:14:45;;;;;;;4.57;4.17;;;12.50;56.40;;;;;;5032713;28;20167;-64
2024/01/30 09:17:12;;;;;;;9.70;4.83;;;12.20;58.00;;;;;;5032633;28;20690;-64
2024/01/30 09:19:37;;;;;;;5.33;4.33;;;12.00;58.80;;;;;;5032914;28;20166;-64
2024/01/30 09:22:03;;;;;;;8.70;4.33;;;11.70;59.50;;;;;;5032538;28;20463;-64
2024/01/30 09:24:29;;;;;;;3.10;2.80;;;11.50;60.40;;;;;;5032975;28;20679;-64
2024/01/30 09:26:54;;;;;;;5.97;4.13;;;11.40;60.70;;;;;;5032903;28;20460;-64
2024/01/30 09:29:21;;;;;;;6.97;5.00;;;11.30;62.70;;;;;;5033875;28;20175;-64
2024/01/30 09:31:47;;;;;;;4.40;4.00;;;11.10;64.20;;;;;;5034076;28;20190;-64
2024/01/30 09:34:13;;;;;;;4.80;3.70;;;11.00;65.10;;;;;;5034036;28;20417;-64
2024/01/30 09:36:39;;;;;;;6.30;5.70;;;11.10;65.60;;;;;;5034159;28;20179;-64
2024/01/30 09:39:06;;;;;;;12.13;5.37;;;11.20;66.10;;;;;;5034079;28;20921;-64
2024/01/30 09:41:33;;;;;;;3.20;2.63;;;11.20;65.50;;;;;;5033998;28;20524;-64
2024/01/30 09:44:00;;;;;;;4.90;3.70;;;11.20;65.70;;;;;;5033869;28;20424;-64
2024/01/30 09:46:28;;;;;;;4.27;3.70;;;11.10;66.60;;;;;;5034081;28;20420;-64
2024/01/30 09:48:55;;;;;;;2.97;2.77;;;11.20;67.30;;;;;;5033862;28;20452;-64
2024/01/30 09:51:22;;;;;;;3.60;3.30;;;10.90;67.80;;;;;;5033717;28;20429;-64
2024/01/30 09:53:49;;;;;;;2.90;2.70;;;10.80;67.20;;;;;;5033765;28;20401;-64
2024/01/30 09:56:15;;;;;;;9.90;2.67;;;10.90;68.00;;;;;;5034028;28;20856;-64
2024/01/30 09:58:41;;;;;;;1.97;1.70;;;10.90;66.50;;;;;;5033852;28;20823;-64
2024/01/30 10:01:07;;;;;;;1.57;1.00;;;11.10;61.70;;;;;;5033560;28;20583;-64
2024/01/30 10:03:33;;;;;;;4.20;1.60;;;11.30;59.70;;;;;;5033635;28;20450;-64
2024/01/30 10:06:00;;;;;;;2.10;1.90;;;11.50;58.20;;;;;;5033595;28;20257;-64
2024/01/30 10:08:26;;;;;;;1.50;1.40;;;11.70;59.30;;;;;;5033649;28;20198;-64
2024/01/30 10:10:52;;;;;;;4.30;1.83;;;11.80;60.90;;;;;;5034711;28;20417;-64
2024/01/30 10:13:18;;;;;;;1.57;1.40;;;11.80;59.90;;;;;;5033447;28;20402;-64
2024/01/30 10:15:45;;;;;;;2.03;1.93;;;12.00;56.60;;;;;;5033587;28;20417;-64
2024/01/30 10:18:10;;;;;;;1.63;1.53;;;12.10;54.90;;;;;;5032493;28;20413;-64
2024/01/30 10:20:37;;;;;;;2.20;1.97;;;12.30;55.20;;;;;;5033131;28;20500;-64
2024/01/30 10:23:03;;;;;;;1.30;1.20;;;12.40;53.80;;;;;;5033048;28;20432;-64
2024/01/30 10:25:31;;;;;;;1.90;1.80;;;12.50;54.70;;;;;;5033257;28;20435;-64
2024/01/30 10:27:57;;;;;;;2.63;2.03;;;12.50;53.80;;;;;;5033428;28;20459;-64
2024/01/30 10:30:23;;;;;;;2.17;1.90;;;12.50;52.40;;;;;;5033239;28;20424;-64
2024/01/30 10:32:49;;;;;;;3.33;1.90;;;12.60;50.90;;;;;;5032807;28;20433;-64
2024/01/30 10:35:15;;;;;;;1.53;1.40;;;12.70;50.60;;;;;;5033034;28;20441;-64
2024/01/30 10:37:43;;;;;;;1.93;1.83;;;12.90;49.90;;;;;;5033038;28;20409;-65
2024/01/30 10:40:13;;;;;;;1.27;1.17;;;13.20;50.90;;;;;;5032999;28;20508;-64
2024/01/30 10:42:42;;;;;;;1.77;1.27;;;13.50;48.60;;;;;;5032511;28;20480;-64
2024/01/30 10:45:18;;;;;;;3.80;1.37;;;13.60;48.30;;;;;;5032946;28;20464;-65
2024/01/30 10:47:49;;;;;;;2.00;1.33;;;13.70;46.80;;;;;;5032726;28;20537;-65
2024/01/30 10:50:15;;;;;;;1.30;1.20;;;13.50;46.10;;;;;;5032932;28;20417;-64
2024/01/30 10:52:42;;;;;;;1.00;0.93;;;13.60;45.80;;;;;;5032470;28;20465;-64
2024/01/30 10:55:08;;;;;;;1.73;1.67;;;13.80;44.10;;;;;;5032705;28;20410;-64
2024/01/30 10:57:37;;;;;;;3.10;1.20;;;13.90;43.20;;;;;;5032653;28;20543;-64
2024/01/30 11:00:11;;;;;;;3.03;1.57;;;14.00;43.00;;;;;;5032521;28;20413;-64
2024/01/30 11:02:43;;;;;;;2.57;1.97;;;14.00;43.40;;;;;;5032234;28;20435;-64
2024/01/30 11:05:09;;;;;;;1.20;1.13;;;13.90;43.60;;;;;;5032567;28;20421;-64
2024/01/30 11:07:35;;;;;;;0.90;0.90;;;13.80;42.70;;;;;;5032384;28;20477;-64
2024/01/30 11:10:04;;;;;;;2.20;1.23;;;13.70;44.70;;;;;;5032855;28;20472;-64
2024/01/30 11:12:35;;;;;;;1.30;1.20;;;14.00;43.90;;;;;;5032085;28;20187;-64
2024/01/30 11:15:08;;;;;;;2.00;1.40;;;14.20;43.20;;;;;;5032385;28;20832;-64
2024/01/30 11:17:44;;;;;;;1.93;1.80;;;13.90;42.30;;;;;;5032538;28;20418;-64
2024/01/30 11:20:31;;;;;;;2.30;1.10;;;13.50;42.70;;;;;;5032176;28;20416;-64
2024/01/30 11:22:57;;;;;;;2.07;1.03;;;13.50;42.90;;;;;;5031893;28;20469;-64
2024/01/30 11:25:24;;;;;;;0.97;0.87;;;13.60;42.90;;;;;;5032119;28;20919;-65
2024/01/30 11:27:55;;;;;;;0.90;0.90;;;13.60;43.10;;;;;;5032113;28;20510;-64
2024/01/30 11:30:33;;;;;;;1.30;1.20;;;13.50;41.80;;;;;;5032157;28;20436;-64
2024/01/30 11:33:05;;;;;;;1.60;1.40;;;13.30;43.20;;;;;;5031914;28;20804;-64
2024/01/30 11:35:33;;;;;;;1.47;1.37;;;13.40;43.70;;;;;;5032671;28;20417;-64
2024/01/30 11:38:00;;;;;;;1.40;1.30;;;13.30;43.00;;;;;;5030608;28;20416;-64
2024/01/30 11:40:30;;;;;;;1.37;1.10;;;13.20;42.80;;;;;;5032013;28;20511;-64
2024/01/30 11:42:57;;;;;;;1.20;1.10;;;13.30;43.10;;;;;;5031649;28;20441;-64
2024/01/30 11:45:23;;;;;;;0.97;0.97;;;13.40;43.30;;;;;;5031805;28;20418;-64
2024/01/30 11:47:49;;;;;;;1.07;1.07;;;13.50;42.00;;;;;;5031781;28;20502;-64
2024/01/30 11:50:15;;;;;;;2.23;1.30;;;13.40;42.60;;;;;;5031633;28;20581;-64
2024/01/30 11:52:41;;;;;;;3.00;2.67;;;13.50;42.90;;;;;;5031332;28;20645;-64
2024/01/30 11:55:08;;;;;;;1.63;1.50;;;13.60;44.10;;;;;;5031709;28;20479;-64
2024/01/30 11:57:35;;;;;;;1.03;0.83;;;13.70;43.60;;;;;;5031649;28;20406;-64
2024/01/30 12:00:01;;;;;;;2.47;2.27;;;13.60;42.60;;;;;;5031654;28;20460;-64
2024/01/30 12:02:27;;;;;;;1.40;1.30;;;13.50;43.00;;;;;;5031340;28;20980;-64
2024/01/30 12:04:52;;;;;;;1.30;1.20;;;13.40;42.90;;;;;;5031508;28;20409;-64
2024/01/30 12:07:18;;;;;;;1.13;1.13;;;13.20;43.50;;;;;;5031493;28;20710;-65
2024/01/30 12:09:54;;;;;;;1.60;1.50;;;13.20;44.30;;;;;;5031589;28;20181;-64
2024/01/30 12:12:21;;;;;;;1.47;1.17;;;13.40;44.50;;;;;;5031273;28;20694;-64
2024/01/30 12:14:47;;;;;;;2.00;1.20;;;13.50;44.60;;;;;;5031469;28;20416;-64
2024/01/30 12:17:25;;;;;;;2.17;1.70;;;13.60;44.80;;;;;;5031371;28;20417;-64
2024/01/30 12:19:50;;;;;;;2.10;1.47;;;13.70;45.40;;;;;;5031481;28;20577;-64
2024/01/30 12:22:16;;;;;;;1.77;1.20;;;13.50;46.50;;;;;;5030899;28;20541;-64
2024/01/30 12:24:42;;;;;;;1.53;1.40;;;13.60;48.20;;;;;;5031307;28;20175;-64
2024/01/30 12:27:07;;;;;;;3.67;1.27;;;13.50;46.60;;;;;;5031346;28;20210;-64
2024/01/30 12:29:33;;;;;;;1.20;1.10;;;13.50;47.30;;;;;;5031280;28;20221;-64
2024/01/30 12:32:00;;;;;;;1.63;1.40;;;13.30;47.60;;;;;;5031172;28;20214;-64
2024/01/30 12:34:25;;;;;;;1.60;1.40;;;13.10;46.90;;;;;;5031199;28;20193;-64
2024/01/30 12:36:51;;;;;;;1.63;1.37;;;12.80;48.00;;;;;;5031354;28;20421;-64
2024/01/30 12:39:18;;;;;;;4.63;1.47;;;12.70;48.50;;;;;;5031193;28;20245;-64
2024/01/30 12:41:44;;;;;;;7.40;1.63;;;12.50;48.90;;;;;;5034380;28;20187;-64
2024/01/30 12:44:09;;;;;;;1.40;1.30;;;12.50;50.10;;;;;;5034956;28;20402;-64
2024/01/30 12:46:35;;;;;;;1.60;1.50;;;12.50;50.20;;;;;;5035130;28;20175;-64
2024/01/30 12:49:01;;;;;;;1.20;1.10;;;12.60;50.20;;;;;;5035022;28;20710;-63